MMTO/TLC METAR and TAF weather

Enter ICAO airport designator
Station Type Date Time Source
MMTO METAR 2022/05/24 10:40 UTC NOAA

MMTO 241040Z 00000KT 6SM FEW070 08/07 A3028 RMK 8/030 HZY CI


Station Type Date Time Source
MMTO Decoded METAR 2022/05/24 10:40 UTC NOAA

Toluca / Jose Maria , Mexico (MMTO) 19-21N 099-34W
May 24, 2022 - 06:40 AM EDT / 2022.05.24 1040 UTC
Wind: Calm:0
Visibility: 6 mile(s):0
Sky conditions: mostly clear
Temperature: 46 F (8 C)
Dew Point: 44 F (7 C)
Relative Humidity: 93%
Pressure (altimeter): 30.28 in. Hg (1025 hPa)
ob: MMTO 241040Z 00000KT 6SM FEW070 08/07 A3028 RMK 8/030 HZY CI
cycle: 10

Station Type Date Time Source
MMTO TAF 2022/05/24 12:56 UTC NOAA

TAF MMTO 241052Z 2412/2518 00000KT 5SM HZ SCT080 TX22/2419Z TN07/2412Z
TEMPO 2412/2416 3SM BR HZ SCT015
FM241800 33012KT 5SM HZ BKN020CB BKN080 OVC250
FM242100 33012KT 4SM TSRA BKN018CB OVC080
TEMPO 2423/2503 2SM TSRA OVC015CB
FM250400 04006KT 6SM HZ BKN020 BKN080
FM251000 00000KT 4SM HZ SCT020
TEMPO 2512/2516 2SM BR HZ BKN015
FM251700 33012KT P6SM BKN020 BKN080

Example: see airport list